Beatty, Nevada
Current Conditions -  °F | °C
As of 10:52 AM on Wednesday 26 Nov 2014 (Local Time) from KDRA Reporting Station
Clear Clear  
Wind Chill: 65°   Ceiling: Unl
Heat Index: 65°   Visibility: 10mi
Dew Point: 15°   Wind: 0mph
Humidity: 15%   Direction: NA
Pressure: 30.39"   Gusts: NA
Location:  36.91°N, 116.76°W
Report Text: KDRA 261852Z AUTO 00000KT 10SM CLR 18/M09 A3039 RMK AO2 SLP272 T01831094
Loading
Personal Weather Stations






























Interactive Weather Map New forecast layout! Learn more

10-Day Weather Forecast

Advertisements
Track Severe Weather on mobile